Time;durP1;ratioP1;P1;durP2;ratioP2;P2;SDS_P1;SDS_P2;PMS_P1;PMS_P2;Temp;Humidity;BMP_temperature;BMP_pressure;BME280_temperature;BME280_humidity;BME280_pressure;Samples;Min_cycle;Max_cycle;Signal;HPM_P1;HPM_P2
2021/01/21 00:00:58;;;;;;;3.28;2.15;;;;;;;10.74;47.91;97108.75;4928962;28;20221;-84
2021/01/21 00:03:25;;;;;;;3.25;2.25;;;;;;;10.76;47.19;97113.97;4947088;28;20234;-82
2021/01/21 00:05:51;;;;;;;6.10;2.65;;;;;;;10.81;46.90;97109.84;4941180;29;20266;-81
2021/01/21 00:08:18;;;;;;;3.30;2.55;;;;;;;10.85;47.04;97105.84;4941409;28;20497;-85
2021/01/21 00:10:44;;;;;;;4.38;2.25;;;;;;;10.86;47.02;97102.16;4945665;28;20200;-82
2021/01/21 00:13:10;;;;;;;3.67;2.13;;;;;;;10.83;47.08;97104.31;4958872;28;20220;-82
2021/01/21 00:15:36;;;;;;;4.73;2.33;;;;;;;10.91;47.07;97107.94;4944158;28;20367;-81
2021/01/21 00:18:03;;;;;;;3.05;2.15;;;;;;;10.92;46.75;97103.41;4947722;28;20808;-82
2021/01/21 00:20:29;;;;;;;3.00;2.03;;;;;;;10.90;47.06;97111.63;4963379;28;20196;-81
2021/01/21 00:22:55;;;;;;;2.42;2.22;;;;;;;10.85;47.21;97095.09;4979969;28;20209;-81
2021/01/21 00:25:24;;;;;;;4.70;2.60;;;;;;;10.93;46.66;97102.41;4969868;28;20306;-80
2021/01/21 00:27:50;;;;;;;2.58;2.08;;;;;;;10.89;47.17;97096.50;4953536;28;20232;-79
2021/01/21 00:30:17;;;;;;;3.40;2.47;;;;;;;10.93;46.75;97088.97;4971722;28;20255;-82
2021/01/21 00:32:43;;;;;;;4.05;2.10;;;;;;;10.91;46.77;97090.97;4952479;28;20216;-82
2021/01/21 00:35:11;;;;;;;3.15;2.13;;;;;;;10.93;46.52;97092.50;4958671;28;20192;-81
2021/01/21 00:37:38;;;;;;;2.30;2.10;;;;;;;10.94;46.55;97082.59;4957006;28;20213;-82
2021/01/21 00:40:05;;;;;;;2.55;1.83;;;;;;;10.93;47.13;97075.53;4959101;28;20236;-81
2021/01/21 00:42:32;;;;;;;3.00;2.30;;;;;;;10.93;46.66;97075.53;4957813;28;20231;-82
2021/01/21 00:44:59;;;;;;;4.75;2.22;;;;;;;10.83;47.16;97067.53;4961623;28;20244;-83
2021/01/21 00:47:26;;;;;;;3.50;1.92;;;;;;;10.83;47.17;97070.22;4948318;28;20265;-83
2021/01/21 00:49:52;;;;;;;3.92;2.50;;;;;;;10.79;46.82;97068.81;4959618;28;20200;-83
2021/01/21 00:52:18;;;;;;;6.88;2.10;;;;;;;10.76;47.26;97058.38;4955139;28;20231;-84
2021/01/21 00:54:45;;;;;;;3.17;2.40;;;;;;;10.74;47.06;97056.84;4941747;28;20231;-82
2021/01/21 00:57:11;;;;;;;6.63;2.50;;;;;;;10.68;47.36;97055.63;4953883;28;20220;-82
2021/01/21 00:59:38;;;;;;;3.05;2.47;;;;;;;10.66;47.41;97041.47;4938673;28;20247;-86
2021/01/21 01:02:06;;;;;;;2.67;2.28;;;;;;;10.63;47.79;97040.94;4955411;28;20198;-83
2021/01/21 01:04:35;;;;;;;2.35;1.92;;;;;;;10.61;47.75;97049.13;4940058;28;20223;-83
2021/01/21 01:07:04;;;;;;;3.72;2.50;;;;;;;10.58;47.71;97053.97;4953713;28;20217;-85
2021/01/21 01:09:31;;;;;;;2.65;2.22;;;;;;;10.54;47.72;97050.72;4946617;28;20232;-85
2021/01/21 01:11:57;;;;;;;4.45;3.10;;;;;;;10.63;48.13;97046.31;4964322;28;20235;-86
2021/01/21 01:14:23;;;;;;;2.53;2.20;;;;;;;10.66;47.35;97052.22;4950875;28;20197;-86
2021/01/21 01:16:50;;;;;;;2.13;1.90;;;;;;;10.66;47.76;97051.38;4949851;28;20251;-85
2021/01/21 01:19:18;;;;;;;4.07;2.67;;;;;;;10.64;47.71;97053.34;4949632;28;20310;-84
2021/01/21 01:21:44;;;;;;;2.60;2.28;;;;;;;10.62;47.72;97052.69;4951819;28;20232;-83
2021/01/21 01:24:11;;;;;;;5.57;2.33;;;;;;;10.72;47.58;97048.94;4939923;29;20786;-82
2021/01/21 01:26:41;;;;;;;4.93;2.25;;;;;;;10.75;47.96;97045.09;4940546;28;20314;-83
2021/01/21 01:29:11;;;;;;;2.05;1.70;;;;;;;10.82;47.65;97046.16;4956485;28;20219;-84
2021/01/21 01:31:40;;;;;;;3.25;2.25;;;;;;;10.86;47.43;97048.41;4950856;28;20232;-86
2021/01/21 01:34:09;;;;;;;3.45;2.25;;;;;;;10.98;47.37;97051.72;4954026;28;20212;-80
2021/01/21 01:36:54;;;;;;;2.70;1.98;;;;;;;11.21;46.86;97031.41;4951822;28;20226;-85
2021/01/21 01:39:21;;;;;;;3.75;1.73;;;;;;;11.27;46.31;97025.41;4971077;28;20238;-86
2021/01/21 01:41:52;;;;;;;2.60;1.55;;;;;;;11.29;46.41;97023.41;4960948;28;20252;-82
2021/01/21 01:44:19;;;;;;;3.75;1.50;;;;;;;11.29;45.83;97020.72;4958818;28;20212;-86
2021/01/21 01:46:45;;;;;;;2.33;1.80;;;;;;;11.18;46.70;97019.13;4941618;28;20268;-84
2021/01/21 01:49:18;;;;;;;2.83;2.10;;;;;;;11.14;46.61;97001.63;4952218;28;20228;-85
2021/01/21 01:51:45;;;;;;;3.70;2.22;;;;;;;11.17;46.42;97008.53;4952053;28;20235;-82
2021/01/21 01:54:14;;;;;;;3.25;1.80;;;;;;;11.16;46.43;96998.75;4935798;28;20247;-86
2021/01/21 01:56:47;;;;;;;3.70;1.92;;;;;;;11.22;46.14;96987.38;4944902;28;20219;-85
2021/01/21 01:59:19;;;;;;;2.50;1.83;;;;;;;11.27;45.72;96998.53;4934185;28;20322;-83
2021/01/21 02:01:54;;;;;;;2.83;1.80;;;;;;;11.33;45.53;96988.00;4984215;28;20224;-80
2021/01/21 02:04:40;;;;;;;5.15;1.60;;;;;;;11.32;46.11;96985.44;4971732;28;20220;-81
2021/01/21 02:07:26;;;;;;;4.25;1.60;;;;;;;11.54;45.01;96977.69;4972738;28;20231;-81
2021/01/21 02:10:02;;;;;;;3.63;1.75;;;;;;;11.62;45.30;96963.50;4961912;28;20220;-81
2021/01/21 02:12:46;;;;;;;2.08;1.35;;;;;;;11.70;44.79;96967.06;4944156;28;20275;-81
2021/01/21 02:15:41;;;;;;;1.67;1.52;;;;;;;11.67;44.53;96953.06;4973436;28;20206;-82
2021/01/21 02:18:13;;;;;;;2.97;1.60;;;;;;;11.62;44.62;96950.03;4953905;28;20223;-82
2021/01/21 02:20:58;;;;;;;3.15;1.60;;;;;;;11.64;44.20;96948.03;4965251;28;20228;-84
2021/01/21 02:23:54;;;;;;;4.72;1.42;;;;;;;11.53;44.69;96959.88;4936473;28;20192;-85
2021/01/21 02:26:32;;;;;;;2.30;1.50;;;;;;;11.57;44.92;96952.31;4958345;28;20569;-83
2021/01/21 02:29:08;;;;;;;3.90;2.20;;;;;;;11.53;45.15;96941.03;4953824;28;20268;-84
2021/01/21 02:31:47;;;;;;;2.38;1.40;;;;;;;11.63;44.42;96952.53;4964679;28;20219;-82
2021/01/21 02:34:20;;;;;;;3.00;1.60;;;;;;;11.61;44.60;96937.56;4974366;28;20220;-81
2021/01/21 02:36:53;;;;;;;3.80;1.70;;;;;;;11.57;45.34;96928.09;4962402;28;20230;-84
2021/01/21 02:39:49;;;;;;;1.92;1.30;;;;;;;11.58;44.59;96944.13;4949968;28;20248;-84
2021/01/21 02:42:17;;;;;;;1.85;1.50;;;;;;;11.55;44.91;96928.25;4953645;28;20228;-85
2021/01/21 02:44:43;;;;;;;2.97;1.65;;;;;;;11.57;45.21;96911.94;4967556;28;20224;-84
2021/01/21 02:47:11;;;;;;;2.78;1.98;;;;;;;11.55;44.92;96912.09;4971367;28;20218;-86
2021/01/21 02:49:38;;;;;;;2.22;1.40;;;;;;;11.59;45.17;96924.28;4947030;28;20295;-84
2021/01/21 02:52:23;;;;;;;2.78;1.50;;;;;;;11.51;45.40;96921.53;4923921;29;20268;-85
2021/01/21 02:54:49;;;;;;;2.85;1.60;;;;;;;11.52;44.85;96919.66;4979683;23;20258;-81
2021/01/21 02:57:40;;;;;;;1.80;1.50;;;;;;;11.45;45.13;96924.84;4946221;28;20224;-82
2021/01/21 03:00:09;;;;;;;3.08;1.40;;;;;;;11.53;45.35;96914.13;4946690;28;20239;-81
2021/01/21 03:02:40;;;;;;;2.35;1.50;;;;;;;11.60;45.57;96920.59;4945409;28;20232;-80
2021/01/21 03:05:08;;;;;;;2.92;1.70;;;;;;;11.67;45.28;96904.63;4928755;29;20232;-82
2021/01/21 03:07:35;;;;;;;2.03;1.40;;;;;;;11.75;44.68;96927.03;4912417;28;20221;-82
2021/01/21 03:10:06;;;;;;;2.30;1.70;;;;;;;11.75;45.29;96900.13;4921973;28;20221;-79
2021/01/21 03:12:37;;;;;;;4.82;1.60;;;;;;;11.81;44.96;96904.88;4958807;28;20224;-81
2021/01/21 03:15:10;;;;;;;2.70;1.50;;;;;;;11.83;45.64;96920.88;4923965;29;20238;-81
2021/01/21 03:17:49;;;;;;;2.05;1.48;;;;;;;11.80;45.37;96907.72;4943545;28;20275;-82
2021/01/21 03:20:23;;;;;;;3.97;1.45;;;;;;;11.88;45.71;96913.16;4909081;28;20205;-82
2021/01/21 03:22:49;;;;;;;2.67;1.70;;;;;;;11.88;45.58;96913.97;4916343;29;20209;-83
2021/01/21 03:25:15;;;;;;;2.10;1.50;;;;;;;11.98;45.33;96924.63;4906668;29;20230;-82
2021/01/21 03:27:49;;;;;;;4.30;1.70;;;;;;;11.98;45.13;96927.31;4930501;28;20587;-83
2021/01/21 03:30:22;;;;;;;3.92;2.10;;;;;;;11.97;45.80;96906.78;4908222;28;20236;-83
2021/01/21 03:32:48;;;;;;;3.10;1.77;;;;;;;11.97;45.53;96920.25;4899005;28;20258;-83
2021/01/21 03:35:15;;;;;;;1.48;1.38;;;;;;;11.98;45.64;96913.84;4883249;28;20216;-83
2021/01/21 03:37:42;;;;;;;3.05;1.45;;;;;;;11.90;46.02;96933.53;4938745;29;20213;-83
2021/01/21 03:40:09;;;;;;;2.85;1.45;;;;;;;12.00;46.69;96933.41;4915004;28;20230;-83
2021/01/21 03:42:44;;;;;;;3.72;1.63;;;;;;;11.97;46.64;96957.94;4928925;28;20281;-86
2021/01/21 03:45:24;;;;;;;2.50;1.60;;;;;;;12.07;46.69;96923.66;4934376;28;20236;-83
2021/01/21 03:47:54;;;;;;;2.15;1.63;;;;;;;12.01;47.42;96929.69;4917733;29;20225;-83
2021/01/21 03:50:21;;;;;;;2.83;1.92;;;;;;;12.00;47.99;96893.00;4901691;28;20685;-83
2021/01/21 03:52:49;;;;;;;2.55;1.50;;;;;;;12.05;47.93;96928.34;4929999;29;20204;-81
2021/01/21 03:55:24;;;;;;;1.80;1.60;;;;;;;11.97;48.58;96922.94;4940567;28;20256;-81
2021/01/21 03:57:59;;;;;;;1.67;1.30;;;;;;;11.97;49.14;96922.94;4930284;29;20291;-82
2021/01/21 04:00:32;;;;;;;1.80;1.60;;;;;;;11.91;49.96;96945.13;4939649;28;21149;-80
2021/01/21 04:02:59;;;;;;;2.85;1.38;;;;;;;11.80;51.63;96929.25;4904300;28;20225;-82
2021/01/21 04:05:46;;;;;;;1.88;1.60;;;;;;;11.63;52.45;96930.19;4942121;28;20228;-82
2021/01/21 04:08:17;;;;;;;3.75;1.85;;;;;;;11.59;54.24;96929.66;4937001;28;20285;-81
2021/01/21 04:10:49;;;;;;;2.95;1.48;;;;;;;11.44;54.36;96933.91;4926768;29;20245;-80
2021/01/21 04:13:27;;;;;;;2.60;1.70;;;;;;;11.41;54.67;96930.69;4938208;28;20201;-78
2021/01/21 04:15:57;;;;;;;1.60;1.45;;;;;;;11.29;54.81;96926.56;4928091;28;20225;-80
2021/01/21 04:18:23;;;;;;;2.42;1.73;;;;;;;11.28;55.67;96914.13;4933876;28;20229;-80
2021/01/21 04:21:00;;;;;;;2.20;1.50;;;;;;;11.27;55.07;96933.97;4947361;28;20731;-82
2021/01/21 04:23:27;;;;;;;4.25;1.60;;;;;;;11.26;55.31;96921.50;4931609;28;20237;-82
2021/01/21 04:25:54;;;;;;;2.03;1.58;;;;;;;11.22;56.40;96930.88;4914180;29;20222;-81
2021/01/21 04:28:22;;;;;;;2.55;1.70;;;;;;;11.29;54.32;96907.72;4919301;29;20285;-82
2021/01/21 04:30:49;;;;;;;4.15;1.50;;;;;;;11.21;55.62;96918.44;4927819;28;20257;-81
2021/01/21 04:33:15;;;;;;;2.75;1.70;;;;;;;11.26;55.49;96908.06;4923296;28;20697;-83
2021/01/21 04:35:42;;;;;;;2.88;1.50;;;;;;;11.23;54.67;96917.28;4922192;28;20636;-83
2021/01/21 04:38:08;;;;;;;1.65;1.35;;;;;;;11.35;54.00;96909.78;4924242;29;20591;-82
2021/01/21 04:40:42;;;;;;;3.90;2.20;;;;;;;11.40;54.12;96915.53;4933291;28;20292;-79
2021/01/21 04:43:28;;;;;;;3.60;1.83;;;;;;;11.36;54.15;96919.56;4936582;28;20213;-77
2021/01/21 04:46:08;;;;;;;3.42;1.42;;;;;;;11.44;53.36;96916.94;4931386;28;20637;-78
2021/01/21 04:48:39;;;;;;;3.28;1.77;;;;;;;11.53;53.52;96914.13;4930542;28;20212;-80
2021/01/21 04:51:14;;;;;;;2.35;1.42;;;;;;;11.56;53.34;96921.03;4940125;28;20212;-76
2021/01/21 04:53:49;;;;;;;1.63;1.30;;;;;;;11.59;52.54;96920.72;4933064;28;20205;-78
2021/01/21 04:56:30;;;;;;;3.53;1.52;;;;;;;11.61;52.75;96932.19;4962862;28;20241;-80
2021/01/21 04:59:18;;;;;;;1.90;1.70;;;;;;;11.62;52.36;96917.75;4950921;28;20193;-79
2021/01/21 05:01:48;;;;;;;1.75;1.45;;;;;;;11.62;52.61;96913.19;4946358;28;20213;-78
2021/01/21 05:04:17;;;;;;;2.00;1.50;;;;;;;11.65;52.65;96912.03;4935597;28;20272;-79
2021/01/21 05:07:05;;;;;;;2.25;1.70;;;;;;;11.63;53.07;96892.50;4918980;28;20221;-81
2021/01/21 05:09:31;;;;;;;2.50;1.75;;;;;;;11.62;53.82;96896.22;4921551;28;20226;-81
2021/01/21 05:12:02;;;;;;;3.35;1.50;;;;;;;11.64;53.12;96908.50;4917117;29;20280;-80
2021/01/21 05:14:29;;;;;;;2.28;1.58;;;;;;;11.63;53.49;96892.50;4922328;28;20229;-81
2021/01/21 05:17:04;;;;;;;2.75;1.73;;;;;;;11.68;53.04;96907.16;4950391;29;20285;-82
2021/01/21 05:19:47;;;;;;;1.73;1.60;;;;;;;11.69;52.99;96899.94;4945360;29;20266;-81
2021/01/21 05:22:34;;;;;;;2.58;1.40;;;;;;;11.65;53.46;96890.50;4933936;28;20216;-80
2021/01/21 05:25:19;;;;;;;1.90;1.50;;;;;;;11.61;53.77;96887.28;4938299;28;20239;-80
2021/01/21 05:28:06;;;;;;;2.17;1.40;;;;;;;11.55;54.37;96879.81;4938218;28;20255;-81
2021/01/21 05:30:50;;;;;;;2.05;1.83;;;;;;;11.52;54.51;96871.22;4926532;28;20232;-82
2021/01/21 05:33:28;;;;;;;1.80;1.23;;;;;;;11.55;54.71;96887.88;4917867;28;20229;-81
2021/01/21 05:36:07;;;;;;;2.63;1.77;;;;;;;11.59;54.82;96869.59;4926540;28;20312;-83
2021/01/21 05:38:57;;;;;;;2.08;1.77;;;;;;;11.59;55.19;96864.22;4914815;28;20225;-83
2021/01/21 05:41:44;;;;;;;2.20;1.70;;;;;;;11.64;54.50;96856.50;4911468;28;20230;-82
2021/01/21 05:44:30;;;;;;;2.78;1.50;;;;;;;11.63;54.73;96860.22;4917865;28;20263;-82
2021/01/21 05:47:15;;;;;;;3.75;1.70;;;;;;;11.62;54.55;96848.59;4919723;29;20288;-82
2021/01/21 05:49:44;;;;;;;3.22;1.58;;;;;;;11.62;54.92;96853.97;4924325;29;20264;-81
2021/01/21 05:52:15;;;;;;;2.00;1.40;;;;;;;11.68;55.04;96855.19;4918114;28;20225;-82
2021/01/21 05:54:44;;;;;;;1.90;1.55;;;;;;;11.72;55.03;96853.84;4916031;28;20240;-83
2021/01/21 05:57:19;;;;;;;2.40;1.60;;;;;;;11.75;54.72;96853.53;4922813;28;20325;-83
2021/01/21 05:59:47;;;;;;;1.80;1.55;;;;;;;11.72;55.68;96848.47;4931639;28;20888;-82
2021/01/21 06:02:23;;;;;;;2.30;1.48;;;;;;;11.73;55.27;96850.13;4930007;29;20622;-82
2021/01/21 06:04:59;;;;;;;2.90;1.52;;;;;;;11.80;54.98;96865.50;4912463;29;20297;-81
2021/01/21 06:07:30;;;;;;;1.65;1.55;;;;;;;11.78;55.05;96853.19;4945026;28;20245;-80
2021/01/21 06:09:59;;;;;;;2.17;1.30;;;;;;;11.79;55.21;96869.19;4930559;28;20240;-81
2021/01/21 06:12:27;;;;;;;1.88;1.70;;;;;;;11.82;55.46;96870.72;4925997;29;20230;-82
2021/01/21 06:15:00;;;;;;;1.90;1.70;;;;;;;11.87;55.29;96871.09;4895376;28;20226;-82
2021/01/21 06:17:27;;;;;;;2.10;1.55;;;;;;;11.85;55.51;96870.38;4895049;29;20206;-82
2021/01/21 06:20:23;;;;;;;1.80;1.45;;;;;;;11.84;55.62;96874.94;4923981;28;20283;-83
2021/01/21 06:23:02;;;;;;;1.70;1.60;;;;;;;11.87;55.78;96881.84;4901502;29;20273;-82
2021/01/21 06:25:31;;;;;;;2.38;1.30;;;;;;;11.86;55.86;96872.06;4919305;28;20233;-81
2021/01/21 06:28:00;;;;;;;2.38;2.10;;;;;;;11.79;56.25;96866.50;4931706;28;20233;-81
2021/01/21 06:30:28;;;;;;;4.55;2.20;;;;;;;11.80;56.36;96873.56;4918736;28;20247;-83
2021/01/21 06:33:06;;;;;;;2.85;1.70;;;;;;;11.81;56.71;96887.88;4918950;29;20241;-83
2021/01/21 06:35:47;;;;;;;4.55;1.50;;;;;;;11.81;56.71;96893.28;4915682;28;20213;-82
2021/01/21 06:38:17;;;;;;;4.18;1.65;;;;;;;11.81;57.31;96901.34;4915481;29;20228;-83
2021/01/21 06:40:49;;;;;;;1.80;1.55;;;;;;;11.77;57.64;96886.50;4901388;29;20221;-82
2021/01/21 06:43:18;;;;;;;3.42;1.90;;;;;;;11.78;58.07;96897.13;4900047;28;20221;-83
2021/01/21 06:45:44;;;;;;;6.75;4.50;;;;;;;11.76;58.11;96903.66;4912509;28;20226;-83
2021/01/21 06:48:12;;;;;;;2.10;1.90;;;;;;;11.73;58.39;96901.28;4919606;28;20271;-82
2021/01/21 06:50:41;;;;;;;3.40;1.92;;;;;;;11.73;58.62;96909.38;4900965;28;20240;-80
2021/01/21 06:53:10;;;;;;;2.75;1.90;;;;;;;11.71;59.11;96912.22;4953290;23;20296;-81
2021/01/21 06:55:38;;;;;;;1.63;1.45;;;;;;;11.62;59.58;96896.22;4966433;28;20440;-79
2021/01/21 06:58:07;;;;;;;1.50;1.30;;;;;;;11.56;59.80;96896.81;4953299;28;20246;-82
2021/01/21 07:00:33;;;;;;;2.35;1.60;;;;;;;11.54;59.93;96912.25;4947481;28;20310;-82
2021/01/21 07:03:00;;;;;;;2.00;1.70;;;;;;;11.49;60.22;96901.16;4947412;28;20227;-83
2021/01/21 07:05:30;;;;;;;1.90;1.30;;;;;;;11.43;60.03;96885.66;4974172;28;20196;-81
2021/01/21 07:07:56;;;;;;;2.08;1.70;;;;;;;11.35;60.67;96872.97;4953030;28;20259;-83
2021/01/21 07:10:25;;;;;;;2.00;1.65;;;;;;;11.40;60.43;96865.28;4984151;28;20215;-83
2021/01/21 07:12:54;;;;;;;3.25;1.45;;;;;;;11.40;60.53;96859.91;4974190;28;20914;-81
2021/01/21 07:15:33;;;;;;;1.50;1.40;;;;;;;11.42;60.82;96865.94;4971517;28;20216;-82
2021/01/21 07:18:03;;;;;;;1.95;1.52;;;;;;;11.39;60.79;96874.38;4967968;28;20232;-82
2021/01/21 07:20:34;;;;;;;2.08;1.70;;;;;;;11.40;60.88;96880.56;4970903;28;20270;-83
2021/01/21 07:23:05;;;;;;;2.60;1.55;;;;;;;11.39;60.88;96881.56;4976579;28;20196;-82
2021/01/21 07:25:32;;;;;;;2.70;2.25;;;;;;;11.44;60.88;96877.38;4957175;28;20231;-82
2021/01/21 07:28:09;;;;;;;2.00;1.40;;;;;;;11.47;60.70;96878.91;4973125;28;20254;-82
2021/01/21 07:31:00;;;;;;;2.65;1.67;;;;;;;11.47;60.74;96870.84;4961004;28;20223;-83
2021/01/21 07:33:27;;;;;;;1.65;1.40;;;;;;;11.47;60.87;96895.06;4960634;28;20227;-82
2021/01/21 07:35:55;;;;;;;2.63;1.40;;;;;;;11.51;60.79;96889.22;4936850;28;20869;-83
2021/01/21 07:38:40;;;;;;;2.95;1.63;;;;;;;11.69;60.35;96873.03;4925447;28;20609;-79
2021/01/21 07:41:09;;;;;;;10.77;6.78;;;;;;;11.75;60.15;96885.84;4970024;28;20214;-81
2021/01/21 07:43:56;;;;;;;2.33;1.70;;;;;;;11.82;60.07;96894.94;4973230;28;20206;-82
2021/01/21 07:46:24;;;;;;;1.40;1.30;;;;;;;11.79;60.12;96898.81;4972375;28;20219;-79
2021/01/21 07:49:21;;;;;;;1.63;1.40;;;;;;;11.75;61.08;96892.03;4978430;28;20586;-82
2021/01/21 07:52:18;;;;;;;2.70;1.60;;;;;;;11.71;62.98;96911.38;4949140;28;20231;-81
2021/01/21 07:54:48;;;;;;;1.95;1.27;;;;;;;11.53;62.85;96891.72;4972465;28;20241;-83
2021/01/21 07:57:21;;;;;;;4.30;2.35;;;;;;;11.54;62.77;96901.50;4972380;28;20261;-77
2021/01/21 08:00:00;;;;;;;1.60;1.50;;;;;;;11.51;62.76;96905.38;4953862;28;20227;-83
2021/01/21 08:02:47;;;;;;;1.90;1.60;;;;;;;11.56;63.11;96902.19;4964190;28;20200;-83
2021/01/21 08:05:15;;;;;;;2.90;1.80;;;;;;;11.60;62.82;96915.19;4952609;29;20234;-83
2021/01/21 08:07:52;;;;;;;1.52;1.35;;;;;;;11.64;62.13;96916.56;4967109;28;20219;-84
2021/01/21 08:10:22;;;;;;;1.90;1.60;;;;;;;11.67;63.49;96913.56;4945280;28;20246;-81
2021/01/21 08:13:00;;;;;;;1.80;1.50;;;;;;;11.44;65.41;96916.94;4959489;28;20725;-83
2021/01/21 08:15:28;;;;;;;2.08;1.58;;;;;;;11.30;67.81;96929.09;4975570;28;20225;-83
2021/01/21 08:17:58;;;;;;;1.80;1.30;;;;;;;11.17;67.74;96947.50;4959460;28;20246;-83
2021/01/21 08:20:28;;;;;;;2.45;1.90;;;;;;;11.15;68.33;96935.22;4956894;28;20196;-81
2021/01/21 08:22:59;;;;;;;2.55;1.70;;;;;;;11.14;68.58;96944.28;4969750;28;20203;-82
2021/01/21 08:25:40;;;;;;;2.88;2.10;;;;;;;11.09;68.94;96941.22;4971414;28;20260;-83
2021/01/21 08:28:07;;;;;;;1.60;1.50;;;;;;;11.06;68.99;96960.38;4957596;28;20216;-81
2021/01/21 08:30:34;;;;;;;5.95;1.75;;;;;;;11.00;69.46;96959.16;4945232;28;20230;-83
2021/01/21 08:33:26;;;;;;;1.67;1.30;;;;;;;10.93;71.61;96958.06;4947532;28;20231;-82
2021/01/21 08:35:55;;;;;;;1.50;1.35;;;;;;;10.84;71.99;96958.16;4951138;28;20237;-83
2021/01/21 08:38:24;;;;;;;2.75;1.73;;;;;;;10.76;72.58;96950.88;4963380;28;20291;-80
2021/01/21 08:40:53;;;;;;;3.35;2.05;;;;;;;10.72;73.41;96962.09;4988736;28;20199;-82
2021/01/21 08:43:21;;;;;;;2.75;1.52;;;;;;;10.67;74.11;96959.84;4978613;28;20227;-82
2021/01/21 08:45:49;;;;;;;2.72;1.50;;;;;;;10.66;74.04;96965.38;4978008;28;20227;-82
2021/01/21 08:48:32;;;;;;;2.28;1.70;;;;;;;10.64;74.23;96972.75;4972949;28;20226;-82
2021/01/21 08:50:59;;;;;;;1.70;1.60;;;;;;;10.62;73.72;96980.97;4976360;28;20628;-84
2021/01/21 08:53:28;;;;;;;4.80;4.03;;;;;;;10.68;73.75;96958.88;4966440;28;20219;-82
2021/01/21 08:56:01;;;;;;;4.82;1.63;;;;;;;10.73;74.29;96977.22;4993148;28;20386;-80
2021/01/21 08:58:29;;;;;;;2.15;1.70;;;;;;;10.75;73.94;96977.91;4973843;28;20245;-79
2021/01/21 09:01:11;;;;;;;2.67;1.83;;;;;;;10.68;74.51;96979.50;4972441;28;20231;-81
2021/01/21 09:03:45;;;;;;;1.35;1.20;;;;;;;10.63;73.86;96974.59;4986377;28;20254;-81
2021/01/21 09:06:13;;;;;;;2.30;2.10;;;;;;;10.67;74.43;96992.09;4975116;28;20235;-81
2021/01/21 09:08:58;;;;;;;1.88;1.75;;;;;;;10.78;73.92;97001.78;4975320;28;20224;-81
2021/01/21 09:11:32;;;;;;;2.10;1.55;;;;;;;10.74;73.37;97005.78;4969530;28;20204;-81
2021/01/21 09:14:06;;;;;;;2.53;1.65;;;;;;;10.66;73.79;96986.91;4977056;28;20208;-83
2021/01/21 09:16:47;;;;;;;1.50;1.40;;;;;;;10.66;73.97;97005.69;4976481;28;20227;-81
2021/01/21 09:19:19;;;;;;;2.60;1.30;;;;;;;10.70;74.09;96999.00;4957703;28;20241;-83
2021/01/21 09:22:04;;;;;;;2.00;1.48;;;;;;;10.72;73.63;97015.84;5003515;28;20230;-83
2021/01/21 09:24:54;;;;;;;1.60;1.38;;;;;;;10.68;73.97;97019.81;4987154;28;20255;-83
2021/01/21 09:27:24;;;;;;;2.00;1.60;;;;;;;10.72;74.25;97010.47;4959718;28;20234;-81
2021/01/21 09:30:26;;;;;;;3.90;1.83;;;;;;;10.71;73.92;97016.81;4967369;28;20807;-83
2021/01/21 09:32:53;;;;;;;2.22;1.63;;;;;;;10.78;74.09;97013.38;4977747;28;20223;-81
2021/01/21 09:35:22;;;;;;;2.15;1.90;;;;;;;10.85;73.75;97013.63;4973010;28;20231;-82
2021/01/21 09:37:55;;;;;;;1.98;1.60;;;;;;;10.85;73.75;97032.44;4971461;28;20220;-82
2021/01/21 09:40:27;;;;;;;3.42;1.90;;;;;;;10.86;73.66;97039.50;4968862;28;20228;-83
2021/01/21 09:43:04;;;;;;;2.00;1.70;;;;;;;10.86;73.50;97063.69;4958225;28;20309;-82
2021/01/21 09:45:31;;;;;;;1.60;1.45;;;;;;;10.63;75.04;97110.78;4958501;28;20222;-81
2021/01/21 09:47:58;;;;;;;2.80;1.30;;;;;;;9.87;78.01;97113.75;4963083;28;20282;-83
2021/01/21 09:50:27;;;;;;;5.18;2.30;;;;;;;9.32;82.46;97133.31;4978279;28;20191;-82
2021/01/21 09:53:12;;;;;;;1.95;1.10;;;;;;;8.70;83.47;97135.47;4979476;28;20215;-81
2021/01/21 09:55:38;;;;;;;1.50;1.10;;;;;;;8.48;84.77;97149.94;4985859;28;20302;-82
2021/01/21 09:58:19;;;;;;;2.30;1.40;;;;;;;8.37;85.23;97166.09;4967009;28;20282;-83
2021/01/21 10:09:37;;;;;;;;;;;;;;;;;;;;;
2021/01/21 10:24:35;;;;;;;3.47;1.55;;;;;;;8.03;80.73;97201.25;4866363;29;20242;-81
2021/01/21 10:28:21;;;;;;;;;;;;;;;;;;;;;
2021/01/21 10:32:38;;;;;;;;;;;;;;;;;;;;;
2021/01/21 10:47:20;;;;;;;3.25;1.10;;;;;;;8.38;78.92;97207.97;5006407;23;20238;-82
2021/01/21 10:49:47;;;;;;;1.90;1.48;;;;;;;8.57;78.99;97207.19;4924956;28;20196;-83
2021/01/21 10:52:14;;;;;;;2.75;1.30;;;;;;;8.69;78.58;97204.28;4936770;28;20227;-84
2021/01/21 10:54:52;;;;;;;2.95;1.17;;;;;;;8.58;78.20;97192.81;4882469;28;20241;-84
2021/01/21 10:57:31;;;;;;;4.15;1.20;;;;;;;8.67;78.88;97200.88;4916310;28;20230;-83
2021/01/21 10:59:59;;;;;;;1.40;1.10;;;;;;;8.47;78.64;97212.50;4955288;28;20291;-86
2021/01/21 11:02:32;;;;;;;2.40;1.35;;;;;;;8.44;77.91;97207.44;4934090;28;20200;-85
2021/01/21 11:05:17;;;;;;;4.80;1.20;;;;;;;8.51;78.09;97210.41;4933716;28;20219;-83
2021/01/21 11:07:44;;;;;;;2.15;1.27;;;;;;;8.44;76.64;97206.56;4917280;29;20228;-83
2021/01/21 11:10:23;;;;;;;1.48;1.20;;;;;;;8.34;75.80;97211.88;4919945;29;20302;-84
2021/01/21 11:12:55;;;;;;;1.40;1.15;;;;;;;8.30;74.59;97226.50;4947591;28;20222;-81
2021/01/21 11:15:26;;;;;;;2.97;1.45;;;;;;;8.41;75.98;97212.19;4943346;29;20262;-81
2021/01/21 11:18:11;;;;;;;2.22;1.20;;;;;;;8.34;74.86;97222.59;4927868;28;20228;-83
2021/01/21 11:20:45;;;;;;;3.55;1.20;;;;;;;8.27;75.51;97207.19;4917557;28;20437;-86
2021/01/21 11:23:22;;;;;;;2.30;1.38;;;;;;;8.29;75.95;97207.91;4899310;28;20215;-84
2021/01/21 11:26:25;;;;;;;3.60;1.70;;;;;;;8.35;76.05;97220.78;4936770;29;20193;-84
2021/01/21 11:28:58;;;;;;;2.50;1.73;;;;;;;8.42;76.59;97213.91;4927649;28;20247;-84
2021/01/21 11:31:28;;;;;;;4.75;3.15;;;;;;;8.53;75.90;97213.78;4916467;28;20236;-83
2021/01/21 11:33:59;;;;;;;2.35;1.40;;;;;;;8.52;76.58;97214.78;4915543;29;20239;-85
2021/01/21 11:36:29;;;;;;;1.88;1.67;;;;;;;8.48;77.28;97219.56;4944521;28;20264;-84
2021/01/21 11:38:58;;;;;;;3.35;1.25;;;;;;;8.60;76.39;97212.28;4930027;28;20238;-85
2021/01/21 11:41:28;;;;;;;2.70;1.33;;;;;;;8.52;75.98;97210.28;4906486;28;20199;-84
2021/01/21 11:44:01;;;;;;;4.28;1.40;;;;;;;8.44;76.66;97228.00;4946246;28;20228;-83
2021/01/21 11:46:43;;;;;;;2.05;1.60;;;;;;;8.50;77.19;97224.78;4928268;28;20299;-83
2021/01/21 11:49:17;;;;;;;2.60;1.80;;;;;;;8.47;75.61;97222.38;4899638;29;20228;-84
2021/01/21 11:51:45;;;;;;;2.70;1.10;;;;;;;8.42;75.79;97225.44;4891531;29;20225;-84
2021/01/21 11:54:25;;;;;;;2.95;1.40;;;;;;;8.32;75.69;97229.06;4906756;28;21637;-83
2021/01/21 11:57:04;;;;;;;1.80;1.48;;;;;;;8.30;75.99;97217.66;4909500;28;20233;-85
2021/01/21 12:00:11;;;;;;;1.85;1.30;;;;;;;8.40;76.38;97234.59;4943229;28;20918;-82
2021/01/21 12:02:50;;;;;;;3.70;1.20;;;;;;;8.18;75.62;97226.69;4890132;28;20241;-84
2021/01/21 12:05:42;;;;;;;2.50;1.23;;;;;;;8.27;76.37;97233.97;4899621;28;20196;-82
2021/01/21 12:08:19;;;;;;;2.00;1.20;;;;;;;8.41;75.92;97230.94;4943139;28;20228;-82
2021/01/21 12:11:09;;;;;;;1.55;1.02;;;;;;;8.23;75.59;97224.50;4902779;29;20264;-80
2021/01/21 12:13:45;;;;;;;2.10;1.10;;;;;;;8.44;75.89;97215.47;4910008;29;20242;-79
2021/01/21 12:19:11;;;;;;;2.75;1.50;;;;;;;8.47;74.73;97195.59;4934865;29;20228;-79
2021/01/21 12:22:11;;;;;;;3.53;1.60;;;;;;;8.51;74.11;97202.38;4869073;28;20229;-80
2021/01/21 12:25:59;;;;;;;1.50;1.05;;;;;;;8.53;74.05;97200.41;4892332;28;20225;-82
2021/01/21 12:29:10;;;;;;;4.72;1.70;;;;;;;8.38;72.84;97201.75;4846611;29;20226;-79
2021/01/21 12:31:55;;;;;;;3.17;1.95;;;;;;;8.42;72.64;97185.28;4876453;29;20721;-81
2021/01/21 12:34:23;;;;;;;4.50;1.30;;;;;;;8.44;72.69;97179.81;4859753;29;20256;-80
2021/01/21 12:37:03;;;;;;;2.03;1.42;;;;;;;8.54;71.67;97181.53;4886091;28;20217;-81
2021/01/21 12:39:36;;;;;;;4.22;1.80;;;;;;;8.65;72.19;97161.81;4909380;28;20228;-79
2021/01/21 12:42:28;;;;;;;2.78;1.70;;;;;;;8.63;72.01;97159.31;4881441;28;20220;-77
2021/01/21 12:44:59;;;;;;;2.35;1.60;;;;;;;8.56;72.74;97158.13;4911414;28;20255;-79
2021/01/21 12:47:40;;;;;;;1.42;1.13;;;;;;;8.54;71.28;97151.25;4947616;28;20250;-79
2021/01/21 12:50:13;;;;;;;3.50;2.00;;;;;;;8.57;71.89;97154.50;4936940;29;20200;-80